Alvechurch, United Kingdom
Current Conditions -  °F | °C
As of 7:20 AM on Saturday 29 Nov 2014 (Local Time) from EGBB Reporting Station
Drizzle Drizzle  
Wind Chill: 50°   Ceiling: 800
Heat Index: 50°   Visibility: 3mi
Dew Point: 48°   Wind: 7mph
Humidity: 94%   Direction: 60°ENE
Pressure: 29.8"   Gusts: NA
Location:  52.35°N, 1.97°W
Report Text: EGBB 290720Z 06006KT 010V100 5000 DZ BKN008 10/09 Q1009
Loading
Personal Weather Stations






























Interactive Weather Map New forecast layout! Learn more

10-Day Weather Forecast

Advertisements
Track Severe Weather on mobile